sensor_id;sensor_type;location;lat;lon;timestamp;temperature;humidity
4207;DHT22;2117;47.972;7.830;2023-04-25T00:00:00;10.20;99.90
4207;DHT22;2117;47.972;7.830;2023-04-25T00:02:25;10.20;99.90
4207;DHT22;2117;47.972;7.830;2023-04-25T00:04:51;10.20;99.90
4207;DHT22;2117;47.972;7.830;2023-04-25T00:07:17;10.20;99.90
4207;DHT22;2117;47.972;7.830;2023-04-25T00:09:43;10.20;99.90
4207;DHT22;2117;47.972;7.830;2023-04-25T00:12:08;10.20;99.90
4207;DHT22;2117;47.972;7.830;2023-04-25T00:14:34;10.10;99.90
4207;DHT22;2117;47.972;7.830;2023-04-25T00:17:01;10.10;99.90
4207;DHT22;2117;47.972;7.830;2023-04-25T00:19:26;10.10;99.90
4207;DHT22;2117;47.972;7.830;2023-04-25T00:21:54;10.00;99.90
4207;DHT22;2117;47.972;7.830;2023-04-25T00:24:20;10.00;99.90
4207;DHT22;2117;47.972;7.830;2023-04-25T00:26:45;10.00;99.90
4207;DHT22;2117;47.972;7.830;2023-04-25T00:29:11;10.00;99.90
4207;DHT22;2117;47.972;7.830;2023-04-25T00:31:37;10.00;99.90
4207;DHT22;2117;47.972;7.830;2023-04-25T00:34:02;10.00;99.90
4207;DHT22;2117;47.972;7.830;2023-04-25T00:36:28;10.00;99.90
4207;DHT22;2117;47.972;7.830;2023-04-25T00:38:54;10.00;99.90
4207;DHT22;2117;47.972;7.830;2023-04-25T00:41:20;10.00;99.90
4207;DHT22;2117;47.972;7.830;2023-04-25T00:43:48;9.90;99.90
4207;DHT22;2117;47.972;7.830;2023-04-25T00:46:13;9.90;99.90
4207;DHT22;2117;47.972;7.830;2023-04-25T00:48:39;9.80;99.90
4207;DHT22;2117;47.972;7.830;2023-04-25T00:51:04;9.80;99.90
4207;DHT22;2117;47.972;7.830;2023-04-25T00:53:31;9.80;99.90
4207;DHT22;2117;47.972;7.830;2023-04-25T00:55:57;9.70;99.90
4207;DHT22;2117;47.972;7.830;2023-04-25T00:58:23;9.70;99.90
4207;DHT22;2117;47.972;7.830;2023-04-25T01:00:50;9.60;99.90
4207;DHT22;2117;47.972;7.830;2023-04-25T01:03:18;9.60;99.90
4207;DHT22;2117;47.972;7.830;2023-04-25T01:05:46;9.60;99.90
4207;DHT22;2117;47.972;7.830;2023-04-25T01:08:12;9.60;99.90
4207;DHT22;2117;47.972;7.830;2023-04-25T01:10:38;9.60;99.90
4207;DHT22;2117;47.972;7.830;2023-04-25T01:13:04;9.50;99.90
4207;DHT22;2117;47.972;7.830;2023-04-25T01:15:30;9.50;99.90
4207;DHT22;2117;47.972;7.830;2023-04-25T01:17:55;9.50;99.90
4207;DHT22;2117;47.972;7.830;2023-04-25T01:20:22;9.50;99.90
4207;DHT22;2117;47.972;7.830;2023-04-25T01:22:52;9.50;99.90
4207;DHT22;2117;47.972;7.830;2023-04-25T01:25:19;9.50;99.90
4207;DHT22;2117;47.972;7.830;2023-04-25T01:27:45;9.50;99.90
4207;DHT22;2117;47.972;7.830;2023-04-25T01:30:11;9.50;99.90
4207;DHT22;2117;47.972;7.830;2023-04-25T01:32:36;9.40;99.90
4207;DHT22;2117;47.972;7.830;2023-04-25T01:35:07;9.40;99.90
4207;DHT22;2117;47.972;7.830;2023-04-25T01:37:39;9.40;99.90
4207;DHT22;2117;47.972;7.830;2023-04-25T01:40:05;9.30;99.90
4207;DHT22;2117;47.972;7.830;2023-04-25T01:42:33;9.30;99.90
4207;DHT22;2117;47.972;7.830;2023-04-25T01:44:59;9.30;99.90
4207;DHT22;2117;47.972;7.830;2023-04-25T01:47:24;9.30;99.90
4207;DHT22;2117;47.972;7.830;2023-04-25T01:49:50;9.30;99.90
4207;DHT22;2117;47.972;7.830;2023-04-25T01:52:16;9.30;99.90
4207;DHT22;2117;47.972;7.830;2023-04-25T01:54:42;9.30;99.90
4207;DHT22;2117;47.972;7.830;2023-04-25T01:57:10;9.30;99.90
4207;DHT22;2117;47.972;7.830;2023-04-25T01:59:36;9.30;99.90
4207;DHT22;2117;47.972;7.830;2023-04-25T02:02:02;9.30;99.90
4207;DHT22;2117;47.972;7.830;2023-04-25T02:04:29;9.30;99.90
4207;DHT22;2117;47.972;7.830;2023-04-25T02:06:55;9.40;99.90
4207;DHT22;2117;47.972;7.830;2023-04-25T02:09:21;9.40;99.90
4207;DHT22;2117;47.972;7.830;2023-04-25T02:11:47;9.40;99.90
4207;DHT22;2117;47.972;7.830;2023-04-25T02:14:13;9.30;99.90
4207;DHT22;2117;47.972;7.830;2023-04-25T02:16:38;9.30;99.90
4207;DHT22;2117;47.972;7.830;2023-04-25T02:19:05;9.40;99.90
4207;DHT22;2117;47.972;7.830;2023-04-25T02:21:30;9.40;99.90
4207;DHT22;2117;47.972;7.830;2023-04-25T02:23:56;9.40;99.90
4207;DHT22;2117;47.972;7.830;2023-04-25T02:26:22;9.30;99.90
4207;DHT22;2117;47.972;7.830;2023-04-25T02:28:49;9.30;99.90
4207;DHT22;2117;47.972;7.830;2023-04-25T02:31:15;9.30;99.90
4207;DHT22;2117;47.972;7.830;2023-04-25T02:33:41;9.30;99.90
4207;DHT22;2117;47.972;7.830;2023-04-25T02:36:07;9.30;99.90
4207;DHT22;2117;47.972;7.830;2023-04-25T02:38:33;9.30;99.90
4207;DHT22;2117;47.972;7.830;2023-04-25T02:40:58;9.30;99.90
4207;DHT22;2117;47.972;7.830;2023-04-25T02:43:24;9.30;99.90
4207;DHT22;2117;47.972;7.830;2023-04-25T02:45:49;9.30;99.90
4207;DHT22;2117;47.972;7.830;2023-04-25T02:48:15;9.30;99.90
4207;DHT22;2117;47.972;7.830;2023-04-25T02:50:40;9.30;99.90
4207;DHT22;2117;47.972;7.830;2023-04-25T02:53:06;9.30;99.90
4207;DHT22;2117;47.972;7.830;2023-04-25T02:55:31;9.30;99.90
4207;DHT22;2117;47.972;7.830;2023-04-25T02:57:57;9.30;99.90
4207;DHT22;2117;47.972;7.830;2023-04-25T03:00:23;9.30;99.90
4207;DHT22;2117;47.972;7.830;2023-04-25T03:02:48;9.30;99.90
4207;DHT22;2117;47.972;7.830;2023-04-25T03:05:14;9.20;99.90
4207;DHT22;2117;47.972;7.830;2023-04-25T03:07:40;9.20;99.90
4207;DHT22;2117;47.972;7.830;2023-04-25T03:10:09;9.20;99.90
4207;DHT22;2117;47.972;7.830;2023-04-25T03:12:34;9.30;99.90
4207;DHT22;2117;47.972;7.830;2023-04-25T03:15:00;9.20;99.90
4207;DHT22;2117;47.972;7.830;2023-04-25T03:17:26;9.20;99.90
4207;DHT22;2117;47.972;7.830;2023-04-25T03:19:51;9.20;99.90
4207;DHT22;2117;47.972;7.830;2023-04-25T03:22:17;9.20;99.90
4207;DHT22;2117;47.972;7.830;2023-04-25T03:24:42;9.20;99.90
4207;DHT22;2117;47.972;7.830;2023-04-25T03:27:08;9.10;99.90
4207;DHT22;2117;47.972;7.830;2023-04-25T03:29:34;9.10;99.90
4207;DHT22;2117;47.972;7.830;2023-04-25T03:31:59;9.10;99.90
4207;DHT22;2117;47.972;7.830;2023-04-25T03:34:25;9.10;99.90
4207;DHT22;2117;47.972;7.830;2023-04-25T03:36:51;9.10;99.90
4207;DHT22;2117;47.972;7.830;2023-04-25T03:39:16;9.10;99.90
4207;DHT22;2117;47.972;7.830;2023-04-25T03:41:42;9.10;99.90
4207;DHT22;2117;47.972;7.830;2023-04-25T03:44:08;9.10;99.90
4207;DHT22;2117;47.972;7.830;2023-04-25T03:46:33;9.00;99.90
4207;DHT22;2117;47.972;7.830;2023-04-25T03:48:59;9.00;99.90
4207;DHT22;2117;47.972;7.830;2023-04-25T03:51:25;9.00;99.90
4207;DHT22;2117;47.972;7.830;2023-04-25T03:53:51;8.90;99.90
4207;DHT22;2117;47.972;7.830;2023-04-25T03:56:17;8.80;99.90
4207;DHT22;2117;47.972;7.830;2023-04-25T03:58:42;8.80;99.90
4207;DHT22;2117;47.972;7.830;2023-04-25T04:01:08;8.80;99.90
4207;DHT22;2117;47.972;7.830;2023-04-25T04:03:34;8.80;99.90
4207;DHT22;2117;47.972;7.830;2023-04-25T04:06:04;8.70;99.90
4207;DHT22;2117;47.972;7.830;2023-04-25T04:08:31;8.60;99.90
4207;DHT22;2117;47.972;7.830;2023-04-25T04:10:57;8.60;99.90
4207;DHT22;2117;47.972;7.830;2023-04-25T04:13:23;8.50;99.90
4207;DHT22;2117;47.972;7.830;2023-04-25T04:15:49;8.50;99.90
4207;DHT22;2117;47.972;7.830;2023-04-25T04:18:14;8.40;99.90
4207;DHT22;2117;47.972;7.830;2023-04-25T04:20:40;8.50;99.90
4207;DHT22;2117;47.972;7.830;2023-04-25T04:23:06;8.50;99.90
4207;DHT22;2117;47.972;7.830;2023-04-25T04:25:31;8.50;99.90
4207;DHT22;2117;47.972;7.830;2023-04-25T04:27:57;8.50;99.90
4207;DHT22;2117;47.972;7.830;2023-04-25T04:30:24;8.50;99.90
4207;DHT22;2117;47.972;7.830;2023-04-25T04:32:51;8.50;99.90
4207;DHT22;2117;47.972;7.830;2023-04-25T04:35:17;8.50;99.90
4207;DHT22;2117;47.972;7.830;2023-04-25T04:37:42;8.50;99.90
4207;DHT22;2117;47.972;7.830;2023-04-25T04:40:09;8.50;99.90
4207;DHT22;2117;47.972;7.830;2023-04-25T04:42:35;8.50;99.90
4207;DHT22;2117;47.972;7.830;2023-04-25T04:45:01;8.60;99.90
4207;DHT22;2117;47.972;7.830;2023-04-25T04:47:28;8.60;99.90
4207;DHT22;2117;47.972;7.830;2023-04-25T04:49:56;8.60;99.90
4207;DHT22;2117;47.972;7.830;2023-04-25T04:52:22;8.60;99.90
4207;DHT22;2117;47.972;7.830;2023-04-25T04:54:48;8.60;99.90
4207;DHT22;2117;47.972;7.830;2023-04-25T04:57:13;8.60;99.90
4207;DHT22;2117;47.972;7.830;2023-04-25T04:59:39;8.60;99.90
4207;DHT22;2117;47.972;7.830;2023-04-25T05:02:04;8.70;99.90
4207;DHT22;2117;47.972;7.830;2023-04-25T05:04:30;8.70;99.90
4207;DHT22;2117;47.972;7.830;2023-04-25T05:06:55;8.70;99.90
4207;DHT22;2117;47.972;7.830;2023-04-25T05:09:21;8.70;99.90
4207;DHT22;2117;47.972;7.830;2023-04-25T05:11:51;8.80;99.90
4207;DHT22;2117;47.972;7.830;2023-04-25T05:14:16;8.70;99.90
4207;DHT22;2117;47.972;7.830;2023-04-25T05:16:43;8.70;99.90
4207;DHT22;2117;47.972;7.830;2023-04-25T05:19:08;8.60;99.90
4207;DHT22;2117;47.972;7.830;2023-04-25T05:21:34;8.60;99.90
4207;DHT22;2117;47.972;7.830;2023-04-25T05:24:00;8.60;99.90
4207;DHT22;2117;47.972;7.830;2023-04-25T05:26:25;8.50;99.90
4207;DHT22;2117;47.972;7.830;2023-04-25T05:28:51;8.40;99.90
4207;DHT22;2117;47.972;7.830;2023-04-25T05:31:17;8.40;99.90
4207;DHT22;2117;47.972;7.830;2023-04-25T05:33:42;8.20;99.90
4207;DHT22;2117;47.972;7.830;2023-04-25T05:36:08;8.00;99.90
4207;DHT22;2117;47.972;7.830;2023-04-25T05:38:34;8.00;99.90
4207;DHT22;2117;47.972;7.830;2023-04-25T05:40:59;8.00;99.90
4207;DHT22;2117;47.972;7.830;2023-04-25T05:43:25;7.90;99.90
4207;DHT22;2117;47.972;7.830;2023-04-25T05:45:50;7.80;99.90
4207;DHT22;2117;47.972;7.830;2023-04-25T05:48:16;7.80;99.90
4207;DHT22;2117;47.972;7.830;2023-04-25T05:50:41;7.70;99.90
4207;DHT22;2117;47.972;7.830;2023-04-25T05:53:07;7.60;99.90
4207;DHT22;2117;47.972;7.830;2023-04-25T05:55:34;7.50;99.90
4207;DHT22;2117;47.972;7.830;2023-04-25T05:57:59;7.40;99.90
4207;DHT22;2117;47.972;7.830;2023-04-25T06:00:25;7.30;99.90
4207;DHT22;2117;47.972;7.830;2023-04-25T06:02:50;7.30;99.90
4207;DHT22;2117;47.972;7.830;2023-04-25T06:05:16;7.20;99.90
4207;DHT22;2117;47.972;7.830;2023-04-25T06:07:42;7.10;99.90
4207;DHT22;2117;47.972;7.830;2023-04-25T06:10:08;7.10;99.90
4207;DHT22;2117;47.972;7.830;2023-04-25T06:12:33;7.10;99.90
4207;DHT22;2117;47.972;7.830;2023-04-25T06:14:59;7.10;99.90
4207;DHT22;2117;47.972;7.830;2023-04-25T06:17:25;7.10;99.90
4207;DHT22;2117;47.972;7.830;2023-04-25T06:19:51;7.10;99.90
4207;DHT22;2117;47.972;7.830;2023-04-25T06:22:16;7.10;99.90
4207;DHT22;2117;47.972;7.830;2023-04-25T06:24:42;7.10;99.90
4207;DHT22;2117;47.972;7.830;2023-04-25T06:27:07;7.20;99.90
4207;DHT22;2117;47.972;7.830;2023-04-25T06:29:33;7.20;99.90
4207;DHT22;2117;47.972;7.830;2023-04-25T06:31:58;7.20;99.90
4207;DHT22;2117;47.972;7.830;2023-04-25T06:34:24;7.10;99.90
4207;DHT22;2117;47.972;7.830;2023-04-25T06:36:50;7.10;99.90
4207;DHT22;2117;47.972;7.830;2023-04-25T06:39:15;7.10;99.90
4207;DHT22;2117;47.972;7.830;2023-04-25T06:41:41;7.10;99.90
4207;DHT22;2117;47.972;7.830;2023-04-25T06:44:07;7.20;99.90
4207;DHT22;2117;47.972;7.830;2023-04-25T06:46:32;7.20;99.90
4207;DHT22;2117;47.972;7.830;2023-04-25T06:48:58;7.20;99.90
4207;DHT22;2117;47.972;7.830;2023-04-25T06:51:24;7.20;99.90
4207;DHT22;2117;47.972;7.830;2023-04-25T06:53:49;7.20;99.90
4207;DHT22;2117;47.972;7.830;2023-04-25T06:56:15;7.30;99.90
4207;DHT22;2117;47.972;7.830;2023-04-25T06:58:41;7.40;99.90
4207;DHT22;2117;47.972;7.830;2023-04-25T07:01:07;7.40;99.90
4207;DHT22;2117;47.972;7.830;2023-04-25T07:03:32;7.40;99.90
4207;DHT22;2117;47.972;7.830;2023-04-25T07:05:58;7.40;99.90
4207;DHT22;2117;47.972;7.830;2023-04-25T07:08:23;7.50;99.90
4207;DHT22;2117;47.972;7.830;2023-04-25T07:10:49;7.50;99.90
4207;DHT22;2117;47.972;7.830;2023-04-25T07:13:14;7.50;99.90
4207;DHT22;2117;47.972;7.830;2023-04-25T07:15:40;7.40;99.90
4207;DHT22;2117;47.972;7.830;2023-04-25T07:18:06;7.40;99.90
4207;DHT22;2117;47.972;7.830;2023-04-25T07:20:31;7.40;99.90
4207;DHT22;2117;47.972;7.830;2023-04-25T07:22:58;7.50;99.90
4207;DHT22;2117;47.972;7.830;2023-04-25T07:25:23;7.50;99.90
4207;DHT22;2117;47.972;7.830;2023-04-25T07:27:49;7.50;99.90
4207;DHT22;2117;47.972;7.830;2023-04-25T07:30:14;7.50;99.90
4207;DHT22;2117;47.972;7.830;2023-04-25T07:32:40;7.50;99.90
4207;DHT22;2117;47.972;7.830;2023-04-25T07:35:06;7.50;99.90
4207;DHT22;2117;47.972;7.830;2023-04-25T07:37:33;7.50;99.90
4207;DHT22;2117;47.972;7.830;2023-04-25T07:39:58;7.50;99.90
4207;DHT22;2117;47.972;7.830;2023-04-25T07:42:24;7.50;99.90
4207;DHT22;2117;47.972;7.830;2023-04-25T07:44:50;7.50;99.90
4207;DHT22;2117;47.972;7.830;2023-04-25T07:47:17;7.50;99.90
4207;DHT22;2117;47.972;7.830;2023-04-25T07:49:44;7.50;99.90
4207;DHT22;2117;47.972;7.830;2023-04-25T07:52:10;7.50;99.90
4207;DHT22;2117;47.972;7.830;2023-04-25T07:54:36;7.50;99.90
4207;DHT22;2117;47.972;7.830;2023-04-25T07:57:02;7.60;99.90
4207;DHT22;2117;47.972;7.830;2023-04-25T07:59:27;7.60;99.90
4207;DHT22;2117;47.972;7.830;2023-04-25T08:01:53;7.60;99.90
4207;DHT22;2117;47.972;7.830;2023-04-25T08:04:19;7.60;99.90
4207;DHT22;2117;47.972;7.830;2023-04-25T08:06:44;7.70;99.90
4207;DHT22;2117;47.972;7.830;2023-04-25T08:09:10;7.70;99.90
4207;DHT22;2117;47.972;7.830;2023-04-25T08:11:36;7.80;99.90
4207;DHT22;2117;47.972;7.830;2023-04-25T08:14:02;7.80;99.90
4207;DHT22;2117;47.972;7.830;2023-04-25T08:16:28;7.80;99.90
4207;DHT22;2117;47.972;7.830;2023-04-25T08:18:54;7.90;99.90
4207;DHT22;2117;47.972;7.830;2023-04-25T08:21:19;8.00;99.90
4207;DHT22;2117;47.972;7.830;2023-04-25T08:23:45;8.10;99.90
4207;DHT22;2117;47.972;7.830;2023-04-25T08:26:11;8.10;99.90
4207;DHT22;2117;47.972;7.830;2023-04-25T08:28:37;8.20;99.90
4207;DHT22;2117;47.972;7.830;2023-04-25T08:31:02;8.30;99.90
4207;DHT22;2117;47.972;7.830;2023-04-25T08:33:28;8.40;99.90
4207;DHT22;2117;47.972;7.830;2023-04-25T08:35:54;8.40;99.90
4207;DHT22;2117;47.972;7.830;2023-04-25T08:38:19;8.40;99.90
4207;DHT22;2117;47.972;7.830;2023-04-25T08:40:49;8.40;99.90
4207;DHT22;2117;47.972;7.830;2023-04-25T08:43:18;8.40;99.90
4207;DHT22;2117;47.972;7.830;2023-04-25T08:45:44;8.40;99.90
4207;DHT22;2117;47.972;7.830;2023-04-25T08:48:15;8.40;99.90
4207;DHT22;2117;47.972;7.830;2023-04-25T08:50:54;8.40;99.90
4207;DHT22;2117;47.972;7.830;2023-04-25T08:53:25;8.40;99.90
4207;DHT22;2117;47.972;7.830;2023-04-25T08:55:53;8.50;99.90
4207;DHT22;2117;47.972;7.830;2023-04-25T08:58:19;8.50;99.90
4207;DHT22;2117;47.972;7.830;2023-04-25T09:00:49;8.50;99.90
4207;DHT22;2117;47.972;7.830;2023-04-25T09:03:16;8.60;99.90
4207;DHT22;2117;47.972;7.830;2023-04-25T09:05:42;8.60;99.90
4207;DHT22;2117;47.972;7.830;2023-04-25T09:08:07;8.70;99.90
4207;DHT22;2117;47.972;7.830;2023-04-25T09:10:34;8.70;99.90
4207;DHT22;2117;47.972;7.830;2023-04-25T09:13:24;8.80;99.90
4207;DHT22;2117;47.972;7.830;2023-04-25T09:15:52;8.80;99.90
4207;DHT22;2117;47.972;7.830;2023-04-25T09:18:27;8.90;99.90
4207;DHT22;2117;47.972;7.830;2023-04-25T09:20:54;8.90;99.90
4207;DHT22;2117;47.972;7.830;2023-04-25T09:23:21;9.00;99.90
4207;DHT22;2117;47.972;7.830;2023-04-25T09:25:48;9.10;99.90
4207;DHT22;2117;47.972;7.830;2023-04-25T09:28:14;9.10;99.90
4207;DHT22;2117;47.972;7.830;2023-04-25T09:30:39;9.10;99.90
4207;DHT22;2117;47.972;7.830;2023-04-25T09:33:06;9.20;99.90
4207;DHT22;2117;47.972;7.830;2023-04-25T09:35:39;9.20;99.90
4207;DHT22;2117;47.972;7.830;2023-04-25T09:38:10;9.20;99.90
4207;DHT22;2117;47.972;7.830;2023-04-25T09:40:40;9.30;99.90
4207;DHT22;2117;47.972;7.830;2023-04-25T09:43:10;9.40;99.90
4207;DHT22;2117;47.972;7.830;2023-04-25T09:45:42;9.40;99.90
4207;DHT22;2117;47.972;7.830;2023-04-25T09:48:20;9.50;99.90
4207;DHT22;2117;47.972;7.830;2023-04-25T09:53:36;10.00;99.90
4207;DHT22;2117;47.972;7.830;2023-04-25T09:56:04;10.20;99.90
4207;DHT22;2117;47.972;7.830;2023-04-25T09:58:31;10.50;99.90
4207;DHT22;2117;47.972;7.830;2023-04-25T10:01:03;10.60;99.90
4207;DHT22;2117;47.972;7.830;2023-04-25T10:03:33;10.60;99.90
4207;DHT22;2117;47.972;7.830;2023-04-25T10:06:00;10.60;99.90
4207;DHT22;2117;47.972;7.830;2023-04-25T10:08:32;10.60;99.90
4207;DHT22;2117;47.972;7.830;2023-04-25T10:11:03;10.60;99.90
4207;DHT22;2117;47.972;7.830;2023-04-25T10:13:30;10.70;99.90
4207;DHT22;2117;47.972;7.830;2023-04-25T10:16:00;10.80;99.90
4207;DHT22;2117;47.972;7.830;2023-04-25T10:18:29;11.00;99.90
4207;DHT22;2117;47.972;7.830;2023-04-25T10:20:58;11.10;99.90
4207;DHT22;2117;47.972;7.830;2023-04-25T10:23:24;11.40;99.90
4207;DHT22;2117;47.972;7.830;2023-04-25T10:25:52;11.40;99.90
4207;DHT22;2117;47.972;7.830;2023-04-25T10:28:18;11.60;99.90
4207;DHT22;2117;47.972;7.830;2023-04-25T10:31:01;11.70;99.90
4207;DHT22;2117;47.972;7.830;2023-04-25T10:33:39;11.70;99.90
4207;DHT22;2117;47.972;7.830;2023-04-25T10:36:11;11.60;99.90
4207;DHT22;2117;47.972;7.830;2023-04-25T10:38:37;11.70;99.90
4207;DHT22;2117;47.972;7.830;2023-04-25T10:41:08;11.80;99.90
4207;DHT22;2117;47.972;7.830;2023-04-25T10:43:36;11.90;99.90
4207;DHT22;2117;47.972;7.830;2023-04-25T10:46:26;12.10;99.90
4207;DHT22;2117;47.972;7.830;2023-04-25T10:48:53;12.70;99.90
4207;DHT22;2117;47.972;7.830;2023-04-25T10:51:27;13.10;99.90
4207;DHT22;2117;47.972;7.830;2023-04-25T10:56:28;13.30;99.90
4207;DHT22;2117;47.972;7.830;2023-04-25T11:01:46;13.50;99.90
4207;DHT22;2117;47.972;7.830;2023-04-25T11:04:26;13.60;99.90
4207;DHT22;2117;47.972;7.830;2023-04-25T11:07:22;13.50;99.90
4207;DHT22;2117;47.972;7.830;2023-04-25T11:09:49;13.40;99.90
4207;DHT22;2117;47.972;7.830;2023-04-25T11:12:14;13.60;99.90
4207;DHT22;2117;47.972;7.830;2023-04-25T11:14:41;13.60;99.90
4207;DHT22;2117;47.972;7.830;2023-04-25T11:17:07;13.50;99.90
4207;DHT22;2117;47.972;7.830;2023-04-25T11:19:32;13.50;99.90
4207;DHT22;2117;47.972;7.830;2023-04-25T11:21:59;13.60;99.90
4207;DHT22;2117;47.972;7.830;2023-04-25T11:24:35;13.70;99.90
4207;DHT22;2117;47.972;7.830;2023-04-25T11:27:02;13.60;99.90
4207;DHT22;2117;47.972;7.830;2023-04-25T11:29:30;13.60;99.90
4207;DHT22;2117;47.972;7.830;2023-04-25T11:31:56;13.40;99.90
4207;DHT22;2117;47.972;7.830;2023-04-25T11:34:26;13.20;99.90
4207;DHT22;2117;47.972;7.830;2023-04-25T11:36:53;13.20;99.90
4207;DHT22;2117;47.972;7.830;2023-04-25T11:39:19;13.00;99.90
4207;DHT22;2117;47.972;7.830;2023-04-25T11:41:46;12.90;99.90
4207;DHT22;2117;47.972;7.830;2023-04-25T11:44:12;12.70;99.90
4207;DHT22;2117;47.972;7.830;2023-04-25T11:46:40;12.40;99.90
4207;DHT22;2117;47.972;7.830;2023-04-25T11:49:06;12.10;99.90
4207;DHT22;2117;47.972;7.830;2023-04-25T11:51:41;11.80;99.90
4207;DHT22;2117;47.972;7.830;2023-04-25T11:54:07;11.40;99.90
4207;DHT22;2117;47.972;7.830;2023-04-25T11:56:33;11.20;99.90
4207;DHT22;2117;47.972;7.830;2023-04-25T11:59:05;11.00;99.90
4207;DHT22;2117;47.972;7.830;2023-04-25T12:01:36;11.00;99.90
4207;DHT22;2117;47.972;7.830;2023-04-25T12:04:22;11.00;99.90
4207;DHT22;2117;47.972;7.830;2023-04-25T12:06:52;11.10;99.90
4207;DHT22;2117;47.972;7.830;2023-04-25T12:09:29;11.40;99.90
4207;DHT22;2117;47.972;7.830;2023-04-25T12:11:56;11.90;99.90
4207;DHT22;2117;47.972;7.830;2023-04-25T12:14:31;12.60;99.90
4207;DHT22;2117;47.972;7.830;2023-04-25T12:16:59;13.70;99.90
4207;DHT22;2117;47.972;7.830;2023-04-25T12:19:26;14.70;99.90
4207;DHT22;2117;47.972;7.830;2023-04-25T12:21:52;15.00;99.90
4207;DHT22;2117;47.972;7.830;2023-04-25T12:24:22;15.30;99.90
4207;DHT22;2117;47.972;7.830;2023-04-25T12:27:00;15.70;99.90
4207;DHT22;2117;47.972;7.830;2023-04-25T12:29:28;15.90;99.90
4207;DHT22;2117;47.972;7.830;2023-04-25T12:31:55;16.20;99.90
4207;DHT22;2117;47.972;7.830;2023-04-25T12:34:21;16.10;99.90
4207;DHT22;2117;47.972;7.830;2023-04-25T12:36:47;15.90;99.90
4207;DHT22;2117;47.972;7.830;2023-04-25T12:39:17;15.90;99.90
4207;DHT22;2117;47.972;7.830;2023-04-25T12:41:45;15.70;99.90
4207;DHT22;2117;47.972;7.830;2023-04-25T12:44:11;15.60;99.90
4207;DHT22;2117;47.972;7.830;2023-04-25T12:46:37;15.30;99.90
4207;DHT22;2117;47.972;7.830;2023-04-25T12:49:03;14.90;99.90
4207;DHT22;2117;47.972;7.830;2023-04-25T12:51:30;14.80;99.90
4207;DHT22;2117;47.972;7.830;2023-04-25T12:53:55;14.90;99.90
4207;DHT22;2117;47.972;7.830;2023-04-25T12:56:21;14.80;99.90
4207;DHT22;2117;47.972;7.830;2023-04-25T12:58:47;15.00;99.90
4207;DHT22;2117;47.972;7.830;2023-04-25T13:01:14;15.50;99.90
4207;DHT22;2117;47.972;7.830;2023-04-25T13:03:40;15.80;99.90
4207;DHT22;2117;47.972;7.830;2023-04-25T13:06:06;16.20;99.90
4207;DHT22;2117;47.972;7.830;2023-04-25T13:08:32;16.70;99.90
4207;DHT22;2117;47.972;7.830;2023-04-25T13:10:58;16.90;99.90
4207;DHT22;2117;47.972;7.830;2023-04-25T13:13:23;17.30;99.90
4207;DHT22;2117;47.972;7.830;2023-04-25T13:15:49;17.80;99.90
4207;DHT22;2117;47.972;7.830;2023-04-25T13:18:15;18.30;99.90
4207;DHT22;2117;47.972;7.830;2023-04-25T13:20:41;18.70;99.90
4207;DHT22;2117;47.972;7.830;2023-04-25T13:23:06;19.00;99.90
4207;DHT22;2117;47.972;7.830;2023-04-25T13:25:32;19.30;99.90
4207;DHT22;2117;47.972;7.830;2023-04-25T13:27:58;19.50;99.90
4207;DHT22;2117;47.972;7.830;2023-04-25T13:30:23;18.80;99.90
4207;DHT22;2117;47.972;7.830;2023-04-25T13:32:49;18.80;99.90
4207;DHT22;2117;47.972;7.830;2023-04-25T13:35:16;18.20;99.90
4207;DHT22;2117;47.972;7.830;2023-04-25T13:37:42;17.80;99.90
4207;DHT22;2117;47.972;7.830;2023-04-25T13:40:10;17.20;99.90
4207;DHT22;2117;47.972;7.830;2023-04-25T13:42:37;17.50;99.90
4207;DHT22;2117;47.972;7.830;2023-04-25T13:45:03;17.70;99.90
4207;DHT22;2117;47.972;7.830;2023-04-25T13:47:29;17.60;99.90
4207;DHT22;2117;47.972;7.830;2023-04-25T13:49:55;17.30;99.90
4207;DHT22;2117;47.972;7.830;2023-04-25T13:52:21;16.40;99.90
4207;DHT22;2117;47.972;7.830;2023-04-25T13:54:47;16.30;99.90
4207;DHT22;2117;47.972;7.830;2023-04-25T13:57:12;16.30;99.90
4207;DHT22;2117;47.972;7.830;2023-04-25T13:59:39;16.70;99.90
4207;DHT22;2117;47.972;7.830;2023-04-25T14:02:04;17.10;99.90
4207;DHT22;2117;47.972;7.830;2023-04-25T14:04:30;16.80;99.90
4207;DHT22;2117;47.972;7.830;2023-04-25T14:06:56;16.60;99.90
4207;DHT22;2117;47.972;7.830;2023-04-25T14:09:22;16.30;99.90
4207;DHT22;2117;47.972;7.830;2023-04-25T14:11:51;15.90;99.90
4207;DHT22;2117;47.972;7.830;2023-04-25T14:14:18;15.70;99.90
4207;DHT22;2117;47.972;7.830;2023-04-25T14:16:43;15.30;99.90
4207;DHT22;2117;47.972;7.830;2023-04-25T14:19:09;15.00;99.90
4207;DHT22;2117;47.972;7.830;2023-04-25T14:21:34;14.90;99.90
4207;DHT22;2117;47.972;7.830;2023-04-25T14:24:00;14.90;99.90
4207;DHT22;2117;47.972;7.830;2023-04-25T14:26:26;14.90;99.90
4207;DHT22;2117;47.972;7.830;2023-04-25T14:28:52;14.80;99.90
4207;DHT22;2117;47.972;7.830;2023-04-25T14:31:18;14.70;99.90
4207;DHT22;2117;47.972;7.830;2023-04-25T14:33:43;14.50;99.90
4207;DHT22;2117;47.972;7.830;2023-04-25T14:36:09;14.50;99.90
4207;DHT22;2117;47.972;7.830;2023-04-25T14:38:36;14.40;99.90
4207;DHT22;2117;47.972;7.830;2023-04-25T14:41:01;14.30;99.90
4207;DHT22;2117;47.972;7.830;2023-04-25T14:43:27;14.30;99.90
4207;DHT22;2117;47.972;7.830;2023-04-25T14:45:53;14.00;99.90
4207;DHT22;2117;47.972;7.830;2023-04-25T14:48:19;13.90;99.90
4207;DHT22;2117;47.972;7.830;2023-04-25T14:50:45;13.60;99.90
4207;DHT22;2117;47.972;7.830;2023-04-25T14:53:11;13.60;99.90
4207;DHT22;2117;47.972;7.830;2023-04-25T14:55:37;13.50;99.90
4207;DHT22;2117;47.972;7.830;2023-04-25T14:58:03;13.60;99.90
4207;DHT22;2117;47.972;7.830;2023-04-25T15:00:28;13.60;99.90
4207;DHT22;2117;47.972;7.830;2023-04-25T15:02:56;13.50;99.90
4207;DHT22;2117;47.972;7.830;2023-04-25T15:05:21;13.40;99.90
4207;DHT22;2117;47.972;7.830;2023-04-25T15:07:47;13.00;99.90
4207;DHT22;2117;47.972;7.830;2023-04-25T15:10:13;12.80;99.90
4207;DHT22;2117;47.972;7.830;2023-04-25T15:12:41;12.60;99.90
4207;DHT22;2117;47.972;7.830;2023-04-25T15:15:08;12.40;99.90
4207;DHT22;2117;47.972;7.830;2023-04-25T15:17:43;12.00;99.90
4207;DHT22;2117;47.972;7.830;2023-04-25T15:20:11;11.80;99.90
4207;DHT22;2117;47.972;7.830;2023-04-25T15:22:38;11.60;99.90
4207;DHT22;2117;47.972;7.830;2023-04-25T15:25:04;11.60;99.90
4207;DHT22;2117;47.972;7.830;2023-04-25T15:27:29;11.30;99.90
4207;DHT22;2117;47.972;7.830;2023-04-25T15:29:56;11.20;99.90
4207;DHT22;2117;47.972;7.830;2023-04-25T15:32:21;11.20;99.90
4207;DHT22;2117;47.972;7.830;2023-04-25T15:34:47;11.10;99.90
4207;DHT22;2117;47.972;7.830;2023-04-25T15:37:13;10.90;99.90
4207;DHT22;2117;47.972;7.830;2023-04-25T15:39:39;10.90;99.90
4207;DHT22;2117;47.972;7.830;2023-04-25T15:42:04;10.80;99.90
4207;DHT22;2117;47.972;7.830;2023-04-25T15:44:30;10.80;99.90
4207;DHT22;2117;47.972;7.830;2023-04-25T15:46:55;10.60;99.90
4207;DHT22;2117;47.972;7.830;2023-04-25T15:49:21;10.60;99.90
4207;DHT22;2117;47.972;7.830;2023-04-25T15:51:47;10.40;99.90
4207;DHT22;2117;47.972;7.830;2023-04-25T15:54:13;10.40;99.90
4207;DHT22;2117;47.972;7.830;2023-04-25T15:59:04;10.20;99.90
4207;DHT22;2117;47.972;7.830;2023-04-25T16:01:30;10.20;99.90
4207;DHT22;2117;47.972;7.830;2023-04-25T16:03:57;10.10;99.90
4207;DHT22;2117;47.972;7.830;2023-04-25T16:06:23;10.10;99.90
4207;DHT22;2117;47.972;7.830;2023-04-25T16:08:50;10.10;99.90
4207;DHT22;2117;47.972;7.830;2023-04-25T16:11:17;10.10;99.90
4207;DHT22;2117;47.972;7.830;2023-04-25T16:13:42;10.10;99.90
4207;DHT22;2117;47.972;7.830;2023-04-25T16:16:08;10.10;99.90